sensor_id;sensor_type;location;lat;lon;timestamp;pressure;altitude;pressure_sealevel;temperature;humidity
5522;BME280;2783;48.730;8.006;2023-02-15T00:02:21;101602.94;;;4.48;100.00
5522;BME280;2783;48.730;8.006;2023-02-15T00:04:46;101600.19;;;4.42;100.00
5522;BME280;2783;48.730;8.006;2023-02-15T00:07:13;101592.09;;;4.32;100.00
5522;BME280;2783;48.730;8.006;2023-02-15T00:09:38;101589.41;;;4.29;100.00
5522;BME280;2783;48.730;8.006;2023-02-15T00:12:03;101584.09;;;4.26;100.00
5522;BME280;2783;48.730;8.006;2023-02-15T00:14:29;101584.13;;;4.27;100.00
5522;BME280;2783;48.730;8.006;2023-02-15T00:16:54;101591.22;;;4.30;100.00
5522;BME280;2783;48.730;8.006;2023-02-15T00:19:20;101581.50;;;4.27;100.00
5522;BME280;2783;48.730;8.006;2023-02-15T00:21:46;101577.09;;;4.26;100.00
5522;BME280;2783;48.730;8.006;2023-02-15T00:24:13;101578.75;;;4.21;100.00
5522;BME280;2783;48.730;8.006;2023-02-15T00:26:39;101581.44;;;4.24;100.00
5522;BME280;2783;48.730;8.006;2023-02-15T00:29:05;101584.13;;;4.27;100.00
5522;BME280;2783;48.730;8.006;2023-02-15T00:31:31;101586.78;;;4.29;100.00
5522;BME280;2783;48.730;8.006;2023-02-15T00:34:04;101589.53;;;4.33;100.00
5522;BME280;2783;48.730;8.006;2023-02-15T00:36:29;101583.97;;;4.18;100.00
5522;BME280;2783;48.730;8.006;2023-02-15T00:38:54;101582.06;;;4.10;100.00
5522;BME280;2783;48.730;8.006;2023-02-15T00:41:20;101586.31;;;4.03;100.00
5522;BME280;2783;48.730;8.006;2023-02-15T00:43:45;101582.69;;;3.96;100.00
5522;BME280;2783;48.730;8.006;2023-02-15T00:46:10;101579.22;;;3.99;100.00
5522;BME280;2783;48.730;8.006;2023-02-15T00:48:35;101583.69;;;4.03;100.00
5522;BME280;2783;48.730;8.006;2023-02-15T00:51:01;101576.72;;;4.05;100.00
5522;BME280;2783;48.730;8.006;2023-02-15T00:53:26;101579.31;;;4.03;100.00
5522;BME280;2783;48.730;8.006;2023-02-15T00:55:52;101578.50;;;4.07;100.00
5522;BME280;2783;48.730;8.006;2023-02-15T00:58:17;101569.78;;;4.10;100.00
5522;BME280;2783;48.730;8.006;2023-02-15T01:00:43;101572.34;;;4.07;100.00
5522;BME280;2783;48.730;8.006;2023-02-15T01:03:09;101570.56;;;4.06;100.00
5522;BME280;2783;48.730;8.006;2023-02-15T01:05:34;101560.03;;;4.06;100.00
5522;BME280;2783;48.730;8.006;2023-02-15T01:08:00;101565.38;;;4.11;100.00
5522;BME280;2783;48.730;8.006;2023-02-15T01:10:25;101565.44;;;4.14;100.00
5522;BME280;2783;48.730;8.006;2023-02-15T01:12:51;101561.03;;;4.11;100.00
5522;BME280;2783;48.730;8.006;2023-02-15T01:15:17;101560.09;;;4.09;100.00
5522;BME280;2783;48.730;8.006;2023-02-15T01:17:42;101555.81;;;4.16;100.00
5522;BME280;2783;48.730;8.006;2023-02-15T01:20:10;101571.69;;;4.20;100.00
5522;BME280;2783;48.730;8.006;2023-02-15T01:22:36;101575.25;;;4.22;100.00
5522;BME280;2783;48.730;8.006;2023-02-15T01:25:01;101572.59;;;4.21;100.00
5522;BME280;2783;48.730;8.006;2023-02-15T01:27:26;101568.19;;;4.18;100.00
5522;BME280;2783;48.730;8.006;2023-02-15T01:29:55;101563.78;;;4.19;100.00
5522;BME280;2783;48.730;8.006;2023-02-15T01:32:20;101570.88;;;4.23;100.00
5522;BME280;2783;48.730;8.006;2023-02-15T01:34:45;101569.97;;;4.22;100.00
5522;BME280;2783;48.730;8.006;2023-02-15T01:37:11;101570.88;;;4.23;100.00
5522;BME280;2783;48.730;8.006;2023-02-15T01:39:36;101569.22;;;4.28;100.00
5522;BME280;2783;48.730;8.006;2023-02-15T01:42:01;101560.38;;;4.24;100.00
5522;BME280;2783;48.730;8.006;2023-02-15T01:47:11;101550.72;;;4.23;100.00
5522;BME280;2783;48.730;8.006;2023-02-15T01:49:38;101553.25;;;4.19;100.00
5522;BME280;2783;48.730;8.006;2023-02-15T01:52:06;101551.56;;;4.22;100.00
5522;BME280;2783;48.730;8.006;2023-02-15T01:54:32;101546.25;;;4.21;100.00
5522;BME280;2783;48.730;8.006;2023-02-15T01:57:02;101546.97;;;4.12;100.00
5522;BME280;2783;48.730;8.006;2023-02-15T01:59:28;101554.03;;;4.13;100.00
5522;BME280;2783;48.730;8.006;2023-02-15T02:04:53;101549.63;;;4.14;100.00
5522;BME280;2783;48.730;8.006;2023-02-15T02:07:19;101550.53;;;4.14;100.00
5522;BME280;2783;48.730;8.006;2023-02-15T02:09:45;101551.34;;;4.10;100.00
5522;BME280;2783;48.730;8.006;2023-02-15T02:12:10;101552.34;;;4.15;100.00
5522;BME280;2783;48.730;8.006;2023-02-15T02:14:36;101550.50;;;4.13;100.00
5522;BME280;2783;48.730;8.006;2023-02-15T02:17:14;101551.41;;;4.13;100.00
5522;BME280;2783;48.730;8.006;2023-02-15T02:20:05;101540.00;;;4.14;100.00
5522;BME280;2783;48.730;8.006;2023-02-15T02:23:12;101540.81;;;4.10;100.00
5522;BME280;2783;48.730;8.006;2023-02-15T02:27:50;101533.66;;;4.03;100.00
5522;BME280;2783;48.730;8.006;2023-02-15T02:35:33;101527.47;;;4.01;100.00
5522;BME280;2783;48.730;8.006;2023-02-15T02:38:11;101531.00;;;4.01;100.00
5522;BME280;2783;48.730;8.006;2023-02-15T02:43:33;101522.13;;;3.95;100.00
5522;BME280;2783;48.730;8.006;2023-02-15T02:46:08;101526.41;;;3.90;100.00
5522;BME280;2783;48.730;8.006;2023-02-15T02:48:36;101518.47;;;3.87;100.00
5522;BME280;2783;48.730;8.006;2023-02-15T02:51:02;101526.09;;;3.73;100.00
5522;BME280;2783;48.730;8.006;2023-02-15T02:53:27;101521.75;;;3.74;100.00
5522;BME280;2783;48.730;8.006;2023-02-15T02:56:29;101532.25;;;3.74;100.00
5522;BME280;2783;48.730;8.006;2023-02-15T02:58:47;101520.84;;;3.73;100.00
5522;BME280;2783;48.730;8.006;2023-02-15T03:01:24;101527.06;;;3.77;100.00
5522;BME280;2783;48.730;8.006;2023-02-15T03:03:51;101521.78;;;3.77;100.00
5522;BME280;2783;48.730;8.006;2023-02-15T03:06:23;101506.94;;;3.80;100.00
5522;BME280;2783;48.730;8.006;2023-02-15T03:08:53;101507.81;;;3.81;100.00
5522;BME280;2783;48.730;8.006;2023-02-15T03:11:19;101512.22;;;3.80;100.00
5522;BME280;2783;48.730;8.006;2023-02-15T03:13:44;101513.06;;;3.81;100.00
5522;BME280;2783;48.730;8.006;2023-02-15T03:16:11;101512.22;;;3.80;100.00
5522;BME280;2783;48.730;8.006;2023-02-15T03:19:12;101519.22;;;3.81;100.00
5522;BME280;2783;48.730;8.006;2023-02-15T03:24:07;101517.47;;;3.80;100.00
5522;BME280;2783;48.730;8.006;2023-02-15T03:26:33;101519.22;;;3.81;100.00
5522;BME280;2783;48.730;8.006;2023-02-15T03:28:59;101512.16;;;3.79;100.00
5522;BME280;2783;48.730;8.006;2023-02-15T03:31:28;101523.66;;;3.84;100.00
5522;BME280;2783;48.730;8.006;2023-02-15T03:33:58;101527.16;;;3.83;100.00
5522;BME280;2783;48.730;8.006;2023-02-15T03:36:29;101520.00;;;3.76;100.00
5522;BME280;2783;48.730;8.006;2023-02-15T03:38:59;101518.28;;;3.78;100.00
5522;BME280;2783;48.730;8.006;2023-02-15T03:41:27;101513.03;;;3.78;100.00
5522;BME280;2783;48.730;8.006;2023-02-15T03:43:58;101514.88;;;3.82;100.00
5522;BME280;2783;48.730;8.006;2023-02-15T03:46:45;101516.63;;;3.83;100.00
5522;BME280;2783;48.730;8.006;2023-02-15T03:49:20;101517.50;;;3.82;100.00
5522;BME280;2783;48.730;8.006;2023-02-15T03:51:47;101514.91;;;3.85;100.00
5522;BME280;2783;48.730;8.006;2023-02-15T03:54:14;101513.13;;;3.84;100.00
5522;BME280;2783;48.730;8.006;2023-02-15T03:57:04;101517.50;;;3.82;100.00
5522;BME280;2783;48.730;8.006;2023-02-15T03:59:48;101518.38;;;3.84;100.00
5522;BME280;2783;48.730;8.006;2023-02-15T04:02:35;101521.00;;;3.82;100.00
5522;BME280;2783;48.730;8.006;2023-02-15T04:05:03;101512.25;;;3.82;100.00
5522;BME280;2783;48.730;8.006;2023-02-15T04:07:29;101519.94;;;3.73;100.00
5522;BME280;2783;48.730;8.006;2023-02-15T04:09:54;101515.56;;;3.72;100.00
5522;BME280;2783;48.730;8.006;2023-02-15T04:12:38;101516.47;;;3.74;100.00
5522;BME280;2783;48.730;8.006;2023-02-15T04:15:03;101510.38;;;3.78;100.00
5522;BME280;2783;48.730;8.006;2023-02-15T04:17:47;101513.03;;;3.78;100.00
5522;BME280;2783;48.730;8.006;2023-02-15T04:20:12;101513.03;;;3.78;100.00
5522;BME280;2783;48.730;8.006;2023-02-15T04:22:56;101510.41;;;3.79;100.00
5522;BME280;2783;48.730;8.006;2023-02-15T04:25:40;101509.06;;;3.55;100.00
5522;BME280;2783;48.730;8.006;2023-02-15T04:28:05;101521.31;;;3.53;100.00
5522;BME280;2783;48.730;8.006;2023-02-15T04:30:32;101517.69;;;3.48;100.00
5522;BME280;2783;48.730;8.006;2023-02-15T04:32:57;101509.91;;;3.52;100.00
5522;BME280;2783;48.730;8.006;2023-02-15T04:35:23;101509.66;;;3.40;100.00
5522;BME280;2783;48.730;8.006;2023-02-15T04:37:48;101514.84;;;3.36;100.00
5522;BME280;2783;48.730;8.006;2023-02-15T04:40:14;101509.72;;;3.43;100.00
5522;BME280;2783;48.730;8.006;2023-02-15T04:42:40;101512.44;;;3.48;100.00
5522;BME280;2783;48.730;8.006;2023-02-15T04:45:05;101508.97;;;3.49;100.00
5522;BME280;2783;48.730;8.006;2023-02-15T04:47:30;101515.72;;;3.38;100.00
5522;BME280;2783;48.730;8.006;2023-02-15T04:49:56;101507.47;;;3.20;100.00
5522;BME280;2783;48.730;8.006;2023-02-15T04:52:21;101509.31;;;3.24;100.00
5522;BME280;2783;48.730;8.006;2023-02-15T04:54:47;101504.19;;;3.31;100.00
5522;BME280;2783;48.730;8.006;2023-02-15T04:57:12;101503.41;;;3.34;100.00
5522;BME280;2783;48.730;8.006;2023-02-15T04:59:38;101502.53;;;3.35;100.00
5522;BME280;2783;48.730;8.006;2023-02-15T05:02:03;101494.53;;;3.29;100.00
5522;BME280;2783;48.730;8.006;2023-02-15T05:04:28;101495.53;;;3.35;100.00
5522;BME280;2783;48.730;8.006;2023-02-15T05:06:54;101503.38;;;3.32;100.00
5522;BME280;2783;48.730;8.006;2023-02-15T05:09:19;101504.28;;;3.34;100.00
5522;BME280;2783;48.730;8.006;2023-02-15T05:11:44;101503.50;;;3.40;100.00
5522;BME280;2783;48.730;8.006;2023-02-15T05:14:09;101505.16;;;3.35;100.00
5522;BME280;2783;48.730;8.006;2023-02-15T05:16:35;101502.13;;;3.15;100.00
5522;BME280;2783;48.730;8.006;2023-02-15T05:19:00;101507.44;;;3.18;100.00
5522;BME280;2783;48.730;8.006;2023-02-15T05:21:25;101508.41;;;3.22;100.00
5522;BME280;2783;48.730;8.006;2023-02-15T05:23:51;101506.69;;;3.24;100.00
5522;BME280;2783;48.730;8.006;2023-02-15T05:26:17;101508.59;;;3.31;100.00
5522;BME280;2783;48.730;8.006;2023-02-15T05:29:01;101513.59;;;3.19;100.00
5522;BME280;2783;48.730;8.006;2023-02-15T05:31:27;101511.56;;;3.06;100.00
5522;BME280;2783;48.730;8.006;2023-02-15T05:33:52;101517.47;;;2.96;100.00
5522;BME280;2783;48.730;8.006;2023-02-15T05:36:17;101514.91;;;2.99;100.00
5522;BME280;2783;48.730;8.006;2023-02-15T05:38:42;101518.47;;;3.01;100.00
5522;BME280;2783;48.730;8.006;2023-02-15T05:41:08;101513.91;;;2.94;100.00
5522;BME280;2783;48.730;8.006;2023-02-15T05:43:34;101511.09;;;2.85;100.00
5522;BME280;2783;48.730;8.006;2023-02-15T05:45:59;101519.16;;;2.92;100.00
5522;BME280;2783;48.730;8.006;2023-02-15T05:48:25;101520.75;;;2.86;100.00
5522;BME280;2783;48.730;8.006;2023-02-15T05:53:22;101518.09;;;2.84;100.00
5522;BME280;2783;48.730;8.006;2023-02-15T05:55:47;101515.59;;;2.90;100.00
5522;BME280;2783;48.730;8.006;2023-02-15T05:58:13;101527.06;;;2.94;100.00
5522;BME280;2783;48.730;8.006;2023-02-15T06:00:38;101521.69;;;2.88;100.00
5522;BME280;2783;48.730;8.006;2023-02-15T06:03:03;101516.69;;;3.00;100.00
5522;BME280;2783;48.730;8.006;2023-02-15T06:05:28;101521.13;;;3.02;100.00
5522;BME280;2783;48.730;8.006;2023-02-15T06:07:54;101531.66;;;3.04;100.00
5522;BME280;2783;48.730;8.006;2023-02-15T06:10:19;101526.56;;;3.10;100.00
5522;BME280;2783;48.730;8.006;2023-02-15T06:12:44;101523.84;;;3.07;100.00
5522;BME280;2783;48.730;8.006;2023-02-15T06:15:10;101535.06;;;2.98;100.00
5522;BME280;2783;48.730;8.006;2023-02-15T06:17:35;101541.16;;;2.97;100.00
5522;BME280;2783;48.730;8.006;2023-02-15T06:20:00;101542.09;;;2.99;100.00
5522;BME280;2783;48.730;8.006;2023-02-15T06:22:25;101548.88;;;2.90;100.00
5522;BME280;2783;48.730;8.006;2023-02-15T06:24:51;101557.25;;;2.73;100.00
5522;BME280;2783;48.730;8.006;2023-02-15T06:27:16;101551.81;;;2.66;100.00
5522;BME280;2783;48.730;8.006;2023-02-15T06:29:41;101548.38;;;2.68;100.00
5522;BME280;2783;48.730;8.006;2023-02-15T06:32:07;101548.94;;;2.55;100.00
5522;BME280;2783;48.730;8.006;2023-02-15T06:34:32;101553.25;;;2.52;100.00
5522;BME280;2783;48.730;8.006;2023-02-15T06:36:57;101549.16;;;2.64;100.00
5522;BME280;2783;48.730;8.006;2023-02-15T06:39:23;101547.53;;;2.69;100.00
5522;BME280;2783;48.730;8.006;2023-02-15T06:41:48;101549.28;;;2.70;100.00
5522;BME280;2783;48.730;8.006;2023-02-15T06:44:13;101547.59;;;2.72;100.00
5522;BME280;2783;48.730;8.006;2023-02-15T06:46:38;101551.63;;;2.57;100.00
5522;BME280;2783;48.730;8.006;2023-02-15T06:49:04;101568.16;;;2.53;100.00
5522;BME280;2783;48.730;8.006;2023-02-15T06:51:29;101566.91;;;2.39;100.00
5522;BME280;2783;48.730;8.006;2023-02-15T06:53:54;101565.84;;;2.32;100.00
5522;BME280;2783;48.730;8.006;2023-02-15T06:56:20;101564.66;;;2.20;100.00
5522;BME280;2783;48.730;8.006;2023-02-15T06:58:45;101568.13;;;2.17;100.00
5522;BME280;2783;48.730;8.006;2023-02-15T07:01:14;101567.41;;;2.24;100.00
5522;BME280;2783;48.730;8.006;2023-02-15T07:03:40;101575.53;;;2.33;100.00
5522;BME280;2783;48.730;8.006;2023-02-15T07:06:05;101561.38;;;2.27;100.00
5522;BME280;2783;48.730;8.006;2023-02-15T07:08:33;101558.13;;;2.37;100.00
5522;BME280;2783;48.730;8.006;2023-02-15T07:10:58;101565.19;;;2.41;100.00
5522;BME280;2783;48.730;8.006;2023-02-15T07:13:43;101560.09;;;2.45;100.00
5522;BME280;2783;48.730;8.006;2023-02-15T07:16:09;101556.50;;;2.42;100.00
5522;BME280;2783;48.730;8.006;2023-02-15T07:18:35;101554.91;;;2.48;100.00
5522;BME280;2783;48.730;8.006;2023-02-15T07:21:00;101559.63;;;2.63;100.00
5522;BME280;2783;48.730;8.006;2023-02-15T07:23:25;101557.91;;;2.63;100.00
5522;BME280;2783;48.730;8.006;2023-02-15T07:26:00;101561.50;;;2.68;100.00
5522;BME280;2783;48.730;8.006;2023-02-15T07:28:26;101565.06;;;2.70;100.00
5522;BME280;2783;48.730;8.006;2023-02-15T07:30:52;101557.75;;;2.57;100.00
5522;BME280;2783;48.730;8.006;2023-02-15T07:33:17;101561.50;;;2.68;100.00
5522;BME280;2783;48.730;8.006;2023-02-15T07:35:49;101549.56;;;2.81;100.00
5522;BME280;2783;48.730;8.006;2023-02-15T07:38:14;101558.47;;;2.88;100.00
5522;BME280;2783;48.730;8.006;2023-02-15T07:40:40;101550.66;;;2.91;100.00
5522;BME280;2783;48.730;8.006;2023-02-15T07:43:05;101551.56;;;2.93;100.00
5522;BME280;2783;48.730;8.006;2023-02-15T07:45:31;101554.09;;;2.88;100.00
5522;BME280;2783;48.730;8.006;2023-02-15T07:47:56;101558.16;;;2.76;100.00
5522;BME280;2783;48.730;8.006;2023-02-15T07:50:21;101547.88;;;2.85;100.00
5522;BME280;2783;48.730;8.006;2023-02-15T07:52:47;101548.94;;;2.93;100.00
5522;BME280;2783;48.730;8.006;2023-02-15T07:55:12;101544.34;;;2.83;100.00
5522;BME280;2783;48.730;8.006;2023-02-15T07:57:41;101547.72;;;2.79;100.00
5522;BME280;2783;48.730;8.006;2023-02-15T08:00:06;101547.03;;;2.86;100.00
5522;BME280;2783;48.730;8.006;2023-02-15T08:02:32;101544.69;;;2.98;100.00
5522;BME280;2783;48.730;8.006;2023-02-15T08:04:57;101543.03;;;3.03;100.00
5522;BME280;2783;48.730;8.006;2023-02-15T08:07:22;101535.16;;;3.03;100.00
5522;BME280;2783;48.730;8.006;2023-02-15T08:09:48;101527.88;;;2.90;100.00
5522;BME280;2783;48.730;8.006;2023-02-15T08:12:13;101533.09;;;2.88;100.00
5522;BME280;2783;48.730;8.006;2023-02-15T08:14:38;101534.13;;;2.96;100.00
5522;BME280;2783;48.730;8.006;2023-02-15T08:17:03;101537.72;;;3.00;100.00
5522;BME280;2783;48.730;8.006;2023-02-15T08:19:30;101534.22;;;3.01;100.00
5522;BME280;2783;48.730;8.006;2023-02-15T08:22:00;101528.72;;;2.90;100.00
5522;BME280;2783;48.730;8.006;2023-02-15T08:24:26;101534.84;;;2.89;100.00
5522;BME280;2783;48.730;8.006;2023-02-15T08:26:52;101526.25;;;2.96;100.00
5522;BME280;2783;48.730;8.006;2023-02-15T08:29:22;101525.63;;;3.08;100.00
5522;BME280;2783;48.730;8.006;2023-02-15T08:31:48;101530.97;;;3.12;100.00
5522;BME280;2783;48.730;8.006;2023-02-15T08:34:15;101526.63;;;3.13;100.00
5522;BME280;2783;48.730;8.006;2023-02-15T08:36:41;101536.00;;;3.02;100.00
5522;BME280;2783;48.730;8.006;2023-02-15T08:39:06;101538.56;;;2.99;100.00
5522;BME280;2783;48.730;8.006;2023-02-15T08:41:33;101529.25;;;3.13;100.00
5522;BME280;2783;48.730;8.006;2023-02-15T08:43:59;101521.38;;;3.13;100.00
5522;BME280;2783;48.730;8.006;2023-02-15T08:46:26;101522.47;;;3.24;100.00
5522;BME280;2783;48.730;8.006;2023-02-15T08:48:52;101513.91;;;3.34;100.00
5522;BME280;2783;48.730;8.006;2023-02-15T08:51:19;101519.22;;;3.37;100.00
5522;BME280;2783;48.730;8.006;2023-02-15T08:53:46;101520.59;;;3.18;100.00
5522;BME280;2783;48.730;8.006;2023-02-15T08:56:13;101513.66;;;3.22;100.00
5522;BME280;2783;48.730;8.006;2023-02-15T08:58:39;101521.69;;;3.28;100.00
5522;BME280;2783;48.730;8.006;2023-02-15T09:01:10;101511.16;;;3.28;100.00
5522;BME280;2783;48.730;8.006;2023-02-15T09:03:36;101515.47;;;3.24;100.00
5522;BME280;2783;48.730;8.006;2023-02-15T09:06:02;101505.00;;;3.26;100.00
5522;BME280;2783;48.730;8.006;2023-02-15T09:08:27;101509.50;;;3.33;100.00
5522;BME280;2783;48.730;8.006;2023-02-15T09:10:53;101506.34;;;3.07;100.00
5522;BME280;2783;48.730;8.006;2023-02-15T09:13:19;101505.47;;;3.08;100.00
5522;BME280;2783;48.730;8.006;2023-02-15T09:15:45;101511.66;;;3.10;100.00
5522;BME280;2783;48.730;8.006;2023-02-15T09:18:10;101509.41;;;3.28;100.00
5522;BME280;2783;48.730;8.006;2023-02-15T09:20:37;101505.31;;;3.41;100.00
5522;BME280;2783;48.730;8.006;2023-02-15T09:23:02;101509.88;;;3.51;100.00
5522;BME280;2783;48.730;8.006;2023-02-15T09:25:28;101512.78;;;3.66;100.00
5522;BME280;2783;48.730;8.006;2023-02-15T09:27:53;101505.88;;;3.71;100.00
5522;BME280;2783;48.730;8.006;2023-02-15T09:30:18;101497.19;;;3.75;100.00
5522;BME280;2783;48.730;8.006;2023-02-15T09:32:44;101509.59;;;3.82;100.00
5522;BME280;2783;48.730;8.006;2023-02-15T09:35:11;101507.72;;;3.75;100.00
5522;BME280;2783;48.730;8.006;2023-02-15T09:37:36;101507.81;;;3.81;100.00
5522;BME280;2783;48.730;8.006;2023-02-15T09:40:01;101511.41;;;3.86;100.00
5522;BME280;2783;48.730;8.006;2023-02-15T09:47:48;101508.72;;;3.81;100.00
5522;BME280;2783;48.730;8.006;2023-02-15T09:55:59;101510.69;;;3.94;100.00
5522;BME280;2783;48.730;8.006;2023-02-15T09:58:35;101513.25;;;3.90;100.00
5522;BME280;2783;48.730;8.006;2023-02-15T10:03:39;101508.44;;;4.17;100.00
5522;BME280;2783;48.730;8.006;2023-02-15T10:11:18;101518.31;;;4.30;100.00
5522;BME280;2783;48.730;8.006;2023-02-15T10:16:54;101512.94;;;4.21;100.00
5522;BME280;2783;48.730;8.006;2023-02-15T10:21:48;101513.44;;;4.02;100.00
5522;BME280;2783;48.730;8.006;2023-02-15T10:24:23;101523.94;;;3.99;100.00
5522;BME280;2783;48.730;8.006;2023-02-15T10:26:52;101515.38;;;4.12;100.00
5522;BME280;2783;48.730;8.006;2023-02-15T10:29:27;101516.22;;;4.08;100.00
5522;BME280;2783;48.730;8.006;2023-02-15T10:39:50;101512.66;;;4.06;100.00
5522;BME280;2783;48.730;8.006;2023-02-15T10:45:06;101497.25;;;4.30;100.00
5522;BME280;2783;48.730;8.006;2023-02-15T10:55:30;101488.94;;;4.60;98.73
5522;BME280;2783;48.730;8.006;2023-02-15T11:00:36;101489.19;;;4.76;97.67
5522;BME280;2783;48.730;8.006;2023-02-15T11:08:43;101469.03;;;4.78;96.67
5522;BME280;2783;48.730;8.006;2023-02-15T11:11:11;101459.41;;;4.82;96.51
5522;BME280;2783;48.730;8.006;2023-02-15T11:13:42;101459.19;;;4.67;94.37
5522;BME280;2783;48.730;8.006;2023-02-15T11:18:38;101450.34;;;4.63;94.88
5522;BME280;2783;48.730;8.006;2023-02-15T11:23:45;101445.78;;;4.50;94.71
5522;BME280;2783;48.730;8.006;2023-02-15T11:26:13;101440.63;;;4.58;94.79
5522;BME280;2783;48.730;8.006;2023-02-15T11:28:42;101453.09;;;4.69;94.90
5522;BME280;2783;48.730;8.006;2023-02-15T11:31:13;101441.03;;;4.89;95.26
5522;BME280;2783;48.730;8.006;2023-02-15T11:33:42;101427.22;;;5.05;95.05
5522;BME280;2783;48.730;8.006;2023-02-15T11:36:11;101427.34;;;5.17;94.53
5522;BME280;2783;48.730;8.006;2023-02-15T11:38:39;101424.81;;;5.25;94.25
5522;BME280;2783;48.730;8.006;2023-02-15T11:41:12;101412.63;;;5.39;95.11
5522;BME280;2783;48.730;8.006;2023-02-15T11:43:43;101410.88;;;5.38;93.77
5522;BME280;2783;48.730;8.006;2023-02-15T11:46:10;101414.59;;;5.58;93.62
5522;BME280;2783;48.730;8.006;2023-02-15T11:48:36;101406.78;;;5.69;92.89
5522;BME280;2783;48.730;8.006;2023-02-15T11:51:01;101406.78;;;5.69;91.44
5522;BME280;2783;48.730;8.006;2023-02-15T11:53:28;101400.69;;;5.79;91.02
5522;BME280;2783;48.730;8.006;2023-02-15T11:55:55;101398.16;;;5.85;89.56
5522;BME280;2783;48.730;8.006;2023-02-15T12:00:49;101388.56;;;5.97;89.53
5522;BME280;2783;48.730;8.006;2023-02-15T12:03:18;101388.69;;;6.11;88.02
5522;BME280;2783;48.730;8.006;2023-02-15T12:05:47;101384.25;;;6.07;88.40
5522;BME280;2783;48.730;8.006;2023-02-15T12:08:20;101381.56;;;5.99;87.87
5522;BME280;2783;48.730;8.006;2023-02-15T12:13:30;101365.91;;;6.29;87.89
5522;BME280;2783;48.730;8.006;2023-02-15T12:15:56;101367.78;;;6.42;88.07
5522;BME280;2783;48.730;8.006;2023-02-15T12:23:51;101370.13;;;6.02;86.44
5522;BME280;2783;48.730;8.006;2023-02-15T12:26:23;101373.66;;;6.01;88.39
5522;BME280;2783;48.730;8.006;2023-02-15T12:28:49;101367.50;;;6.06;88.07
5522;BME280;2783;48.730;8.006;2023-02-15T12:31:27;101364.00;;;6.07;88.98
5522;BME280;2783;48.730;8.006;2023-02-15T12:33:53;101368.50;;;6.19;89.49
5522;BME280;2783;48.730;8.006;2023-02-15T12:36:21;101375.59;;;6.29;89.13
5522;BME280;2783;48.730;8.006;2023-02-15T12:41:31;101372.06;;;6.30;88.39
5522;BME280;2783;48.730;8.006;2023-02-15T12:44:07;101366.81;;;6.33;88.24
5522;BME280;2783;48.730;8.006;2023-02-15T12:46:40;101358.84;;;6.25;86.96
5522;BME280;2783;48.730;8.006;2023-02-15T12:52:34;101345.63;;;6.21;88.13
5522;BME280;2783;48.730;8.006;2023-02-15T12:54:30;101346.47;;;6.18;88.96
5522;BME280;2783;48.730;8.006;2023-02-15T12:56:56;101342.91;;;6.13;88.81
5522;BME280;2783;48.730;8.006;2023-02-15T12:59:24;101331.50;;;6.20;88.84
5522;BME280;2783;48.730;8.006;2023-02-15T13:01:53;101331.41;;;6.05;89.50
5522;BME280;2783;48.730;8.006;2023-02-15T13:06:48;101335.66;;;5.84;90.03
5522;BME280;2783;48.730;8.006;2023-02-15T13:11:42;101329.59;;;5.97;89.36
5522;BME280;2783;48.730;8.006;2023-02-15T13:14:21;101334.91;;;6.01;87.96
5522;BME280;2783;48.730;8.006;2023-02-15T13:16:48;101333.09;;;5.93;87.67
5522;BME280;2783;48.730;8.006;2023-02-15T13:19:18;101327.84;;;6.00;88.11
5522;BME280;2783;48.730;8.006;2023-02-15T13:21:45;101329.59;;;6.00;88.65
5522;BME280;2783;48.730;8.006;2023-02-15T13:26:52;101320.75;;;5.95;89.46
5522;BME280;2783;48.730;8.006;2023-02-15T13:29:21;101320.84;;;6.04;89.64
5522;BME280;2783;48.730;8.006;2023-02-15T13:31:48;101319.09;;;6.03;89.63
5522;BME280;2783;48.730;8.006;2023-02-15T13:34:15;101319.13;;;6.09;89.29
5522;BME280;2783;48.730;8.006;2023-02-15T13:37:01;101316.47;;;6.04;87.90
5522;BME280;2783;48.730;8.006;2023-02-15T13:40:02;101312.91;;;6.04;88.20
5522;BME280;2783;48.730;8.006;2023-02-15T13:42:20;101310.31;;;6.10;87.72
5522;BME280;2783;48.730;8.006;2023-02-15T13:55:30;101313.84;;;6.15;87.44
5522;BME280;2783;48.730;8.006;2023-02-15T13:58:09;101305.19;;;6.34;87.54
5522;BME280;2783;48.730;8.006;2023-02-15T14:06:25;101306.09;;;6.37;87.25
5522;BME280;2783;48.730;8.006;2023-02-15T14:11:29;101298.09;;;6.33;87.11
5522;BME280;2783;48.730;8.006;2023-02-15T14:21:41;101299.00;;;6.35;87.11
5522;BME280;2783;48.730;8.006;2023-02-15T14:32:11;101288.34;;;6.18;85.11
5522;BME280;2783;48.730;8.006;2023-02-15T14:34:46;101301.53;;;6.11;86.32
5522;BME280;2783;48.730;8.006;2023-02-15T14:37:14;101294.53;;;6.19;86.61
5522;BME280;2783;48.730;8.006;2023-02-15T14:39:44;101293.63;;;6.18;87.00
5522;BME280;2783;48.730;8.006;2023-02-15T14:42:34;101297.91;;;6.00;87.65
5522;BME280;2783;48.730;8.006;2023-02-15T14:45:45;101300.50;;;5.88;88.08
5522;BME280;2783;48.730;8.006;2023-02-15T14:48:12;101301.16;;;5.66;88.18
5522;BME280;2783;48.730;8.006;2023-02-15T14:50:42;101299.53;;;5.80;90.04
5522;BME280;2783;48.730;8.006;2023-02-15T14:55:39;101290.72;;;5.81;89.38
5522;BME280;2783;48.730;8.006;2023-02-15T14:58:09;101293.34;;;5.79;89.41
5522;BME280;2783;48.730;8.006;2023-02-15T15:00:39;101296.16;;;5.99;89.51
5522;BME280;2783;48.730;8.006;2023-02-15T15:03:38;101284.69;;;5.97;89.38
5522;BME280;2783;48.730;8.006;2023-02-15T15:05:57;101283.06;;;6.18;89.01
5522;BME280;2783;48.730;8.006;2023-02-15T15:08:37;101288.38;;;6.23;88.79
5522;BME280;2783;48.730;8.006;2023-02-15T15:14:04;101281.31;;;6.22;88.41
5522;BME280;2783;48.730;8.006;2023-02-15T15:16:31;101280.41;;;6.14;87.98
5522;BME280;2783;48.730;8.006;2023-02-15T15:19:10;101282.06;;;6.01;87.87
5522;BME280;2783;48.730;8.006;2023-02-15T15:29:41;101278.56;;;5.98;89.16
5522;BME280;2783;48.730;8.006;2023-02-15T15:32:07;101281.13;;;5.89;88.74
5522;BME280;2783;48.730;8.006;2023-02-15T15:40:07;101282.53;;;5.45;91.16
5522;BME280;2783;48.730;8.006;2023-02-15T15:42:48;101283.50;;;5.56;92.16
5522;BME280;2783;48.730;8.006;2023-02-15T15:48:06;101274.69;;;5.54;92.83
5522;BME280;2783;48.730;8.006;2023-02-15T15:50:34;101278.19;;;5.50;92.61
5522;BME280;2783;48.730;8.006;2023-02-15T15:53:00;101272.91;;;5.50;92.36
5522;BME280;2783;48.730;8.006;2023-02-15T15:55:28;101276.34;;;5.43;92.97
5522;BME280;2783;48.730;8.006;2023-02-15T15:57:56;101272.78;;;5.37;93.31
5522;BME280;2783;48.730;8.006;2023-02-15T16:00:24;101264.88;;;5.37;93.31